• Join FlightAware (Why Join?)
  • Login
  • US Flag 
12:21AM EDT


 

Airport Tracker/Info


-or-


 

Live Flight TrackerFlight Track Log ✈ UAL1650 ✈ 30-Sep-2013 ✈ KIAH - KDEN

Flight Track Log - Related Links

Times and Time Zones

All times are in EDT time to prevent confusion due to time zone crossing. See the UAL1650 flight status page for this flight to view local times or setup timezone preferences in your user account.

Time Position Orientation Groundspeed Altitude Reporting Facility
EDT Latitude Longitude Course Direction KTS MPH feet Rate Location/Type
02:00PM 30.0160 -95.2780 360° North 219 252 2,500  Level FlightAware
02:01PM 30.0310 -95.2840 341° North 231 266 3,100 2,280 Climbing FlightAware
02:01PM 30.0510 -95.2960 333° Northwest 235 270 3,900 1,020 Climbing FlightAware
02:01PM 30.0710 -95.3110 327° Northwest 235 270 3,900 2,880 Level FlightAware
02:02PM 30.1180 -95.3460 328° Northwest 278 320 7,000 3,960 Climbing FlightAware
02:02PM 30.1510 -95.3700 328° Northwest 289 333 8,400 2,880 Climbing FlightAware
02:03PM 30.1740 -95.3870 327° Northwest 291 335 9,400 2,760 Climbing FlightAware
02:03PM 30.2090 -95.4120 328° Northwest 305 351 10,700 2,100 Climbing FlightAware
02:04PM 30.2620 -95.4510 328° Northwest 340 391 11,900 1,920 Climbing FlightAware
02:04PM 30.2990 -95.4790 327° Northwest 352 405 13,000 1,860 Climbing FlightAware
02:05PM 30.3700 -95.5320 327° Northwest 351 404 14,500 2,460 Climbing FlightAware
02:06PM 30.4280 -95.5740 328° Northwest 370 426 16,800 3,180 Climbing FlightAware
02:06PM 30.4720 -95.6050 329° Northwest 369 425 18,100 2,400 Climbing FlightAware
02:07PM 30.5380 -95.6530 328° Northwest 377 434 19,800 2,100 Climbing FlightAware
02:08PM 30.5990 -95.6860 335° Northwest 387 445 21,100 1,980 Climbing FlightAware
02:08PM 30.6550 -95.7160 335° Northwest 397 457 22,200 1,920 Climbing FlightAware
02:09PM 30.7210 -95.7520 335° Northwest 404 465 23,500 1,800 Climbing FlightAware
02:10PM 30.7870 -95.7870 336° Northwest 409 471 24,600 1,740 Climbing FlightAware
02:10PM 30.8570 -95.8240 336° Northwest 417 480 25,800 1,680 Climbing FlightAware
02:11PM 30.9150 -95.8550 335° Northwest 421 484 26,700 1,500 Climbing FlightAware
02:12PM 30.9620 -95.8810 335° Northwest 423 487 27,500 1,620 Climbing FlightAware
02:12PM 31.0410 -95.9230 336° Northwest 431 496 28,600 1,560 Climbing FlightAware
02:13PM 31.1110 -95.9610 335° Northwest 438 504 29,400 1,260 Climbing FlightAware
02:13PM 31.1730 -95.9870 340° North 445 512 30,100 1,260 Climbing FlightAware
02:14PM 31.2420 -96.0140 342° North 449 517 30,900 1,500 Climbing FlightAware
02:14PM 31.3080 -96.0400 341° North 443 510 31,900 1,680 Climbing FlightAware
02:15PM 31.3800 -96.0680 342° North 439 505 32,900 1,560 Climbing FlightAware
02:16PM 31.4420 -96.0920 342° North 438 504 33,700 1,380 Climbing FlightAware
02:16PM 31.5190 -96.1220 342° North 436 502 34,600 1,200 Climbing FlightAware
02:17PM 31.5830 -96.1470 342° North 435 501 35,200 1,080 Climbing FlightAware
02:17PM 31.6510 -96.1730 342° North 434 499 35,900 660 Climbing FlightAware
02:18PM 31.7190 -96.1990 342° North 435 501 36,000 60 Climbing FlightAware
02:19PM 31.7820 -96.2250 341° North 434 499 36,000  Level FlightAware
02:19PM 31.8410 -96.2490 341° North 434 499 36,000  Level FlightAware
02:20PM 31.9170 -96.2780 342° North 433 498 36,000  Level FlightAware
02:20PM 31.9780 -96.3020 342° North 431 496 36,000  Level FlightAware
02:21PM 32.0500 -96.3300 342° North 430 495 36,000  Level FlightAware
02:21PM 32.1180 -96.3560 342° North 429 494 36,000  Level FlightAware
02:22PM 32.1840 -96.3880 338° Northwest 430 495 36,000  Level FlightAware
02:23PM 32.2250 -96.4250 323° Northwest 433 498 36,000  Level FlightAware
02:23PM 32.2730 -96.4780 317° Northwest 432 497 36,000  Level FlightAware
02:24PM 32.3210 -96.5320 316° Northwest 432 497 36,000  Level FlightAware
02:24PM 32.3760 -96.5950 316° Northwest 432 497 36,000  Level FlightAware
02:25PM 32.4310 -96.6570 316° Northwest 432 497 36,000  Level FlightAware
02:25PM 32.4770 -96.7090 316° Northwest 432 497 36,000  Level FlightAware
02:26PM 32.5280 -96.7670 316° Northwest 432 497 36,000  Level FlightAware
02:27PM 32.5750 -96.8210 316° Northwest 432 497 36,000  Level FlightAware
02:27PM 32.6250 -96.8770 317° Northwest 433 498 36,000  Level FlightAware
02:28PM 32.6830 -96.9430 316° Northwest 433 498 36,000  Level FlightAware
02:28PM 32.7290 -96.9960 316° Northwest 433 498 36,000  Level FlightAware
02:29PM 32.7830 -97.0570 316° Northwest 433 498 36,000  Level FlightAware
02:29PM 32.8280 -97.1100 315° West 432 497 36,000  Level FlightAware
02:30PM 32.8740 -97.1610 317° Northwest 432 497 36,000  Level FlightAware
02:31PM 32.9180 -97.2160 314° West 433 498 36,000  Level FlightAware
02:31PM 32.9680 -97.2780 314° West 433 498 36,000  Level FlightAware
02:32PM 33.0150 -97.3380 313° West 433 498 36,000  Level FlightAware
02:32PM 33.0630 -97.4000 313° West 432 497 36,000  Level FlightAware
02:33PM 33.1100 -97.4600 313° West 432 497 36,000  Level FlightAware
02:33PM 33.1570 -97.5200 313° West 433 498 36,000  Level FlightAware
02:34PM 33.1970 -97.5700 314° West 432 497 36,000  Level FlightAware
02:35PM 33.2480 -97.6350 313° West 431 496 36,000  Level FlightAware
02:35PM 33.3020 -97.6950 317° Northwest 430 495 36,000  Level FlightAware
02:36PM 33.3600 -97.7590 317° Northwest 430 495 36,000  Level FlightAware
02:36PM 33.4060 -97.8110 317° Northwest 430 495 36,000  Level FlightAware
02:37PM 33.4590 -97.8700 317° Northwest 428 493 36,000  Level FlightAware
02:38PM 33.5090 -97.9270 316° Northwest 428 493 36,000  Level FlightAware
02:38PM 33.5570 -97.9810 317° Northwest 427 491 36,000  Level FlightAware
02:39PM 33.6180 -98.0490 317° Northwest 426 490 36,000  Level FlightAware
02:39PM 33.6690 -98.1070 317° Northwest 425 489 36,000  Level FlightAware
02:40PM 33.7170 -98.1620 316° Northwest 425 489 36,000  Level FlightAware
02:41PM 33.7630 -98.2140 317° Northwest 425 489 36,000  Level FlightAware
02:41PM 33.8160 -98.2740 317° Northwest 424 488 36,000  Level FlightAware
02:42PM 33.8640 -98.3280 317° Northwest 424 488 36,000  Level FlightAware
02:42PM 33.9210 -98.3940 316° Northwest 425 489 36,000  Level FlightAware
02:43PM 33.9740 -98.4540 317° Northwest 426 490 36,000  Level FlightAware
02:44PM 34.0200 -98.5070 316° Northwest 427 491 36,000  Level FlightAware
02:44PM 34.0700 -98.5640 317° Northwest 429 494 36,000  Level FlightAware
02:45PM 34.1230 -98.6250 316° Northwest 431 496 36,000  Level FlightAware
02:45PM 34.1660 -98.6740 317° Northwest 432 497 36,000  Level FlightAware
02:46PM 34.2210 -98.7370 317° Northwest 432 497 36,000  Level FlightAware
02:46PM 34.2690 -98.7930 316° Northwest 433 498 36,000  Level FlightAware
02:47PM 34.3220 -98.8540 316° Northwest 430 495 36,000  Level FlightAware
02:48PM 34.3940 -98.9370 316° Northwest 430 495 36,000  Level FlightAware
02:48PM 34.4470 -98.9990 316° Northwest 430 495 36,000  Level FlightAware
02:49PM 34.4930 -99.0530 316° Northwest 430 495 36,000  Level FlightAware
02:50PM 34.5470 -99.1160 316° Northwest 430 495 36,000  Level FlightAware
02:50PM 34.5930 -99.1700 316° Northwest 431 496 36,000  Level FlightAware
02:51PM 34.6470 -99.2320 317° Northwest 431 496 36,000  Level FlightAware
02:51PM 34.6990 -99.2940 316° Northwest 431 496 36,000  Level FlightAware
02:52PM 34.7430 -99.3450 316° Northwest 431 496 36,000  Level FlightAware
02:53PM 34.7970 -99.4080 316° Northwest 431 496 36,000  Level FlightAware
02:53PM 34.8480 -99.4690 316° Northwest 430 495 36,000  Level FlightAware
02:54PM 34.8940 -99.5230 316° Northwest 429 494 36,000  Level FlightAware
02:54PM 34.9450 -99.5830 316° Northwest 429 494 36,000  Level FlightAware
02:55PM 35.0060 -99.6550 316° Northwest 429 494 36,000  Level FlightAware
02:56PM 35.0580 -99.7170 316° Northwest 429 494 36,000  Level FlightAware
02:56PM 35.1070 -99.7750 316° Northwest 430 495 36,000  Level FlightAware
02:57PM 35.1570 -99.8350 316° Northwest 430 495 36,000  Level FlightAware
02:57PM 35.2060 -99.8930 316° Northwest 430 495 36,000  Level FlightAware
02:58PM 35.2440 -99.9390 315° West 431 496 36,000  Level FlightAware
02:58PM 35.3070 -100.0150 315° West 431 496 36,000  Level FlightAware
02:59PM 35.3600 -100.0770 316° Northwest 432 497 36,000  Level FlightAware
03:00PM 35.4100 -100.1370 316° Northwest 432 497 36,000  Level FlightAware
03:00PM 35.4520 -100.1880 315° West 433 498 36,000  Level FlightAware
03:01PM 35.5090 -100.2570 315° West 434 499 36,000  Level FlightAware
03:01PM 35.5550 -100.3130 315° West 434 499 36,000  Level FlightAware
03:02PM 35.6080 -100.3770 316° Northwest 434 499 36,000  Level FlightAware
03:03PM 35.6590 -100.4390 315° West 434 499 36,000  Level FlightAware
03:03PM 35.7090 -100.5000 315° West 433 498 36,000  Level FlightAware
03:04PM 35.7560 -100.5570 315° West 432 497 36,000  Level FlightAware
03:04PM 35.8180 -100.6320 316° Northwest 432 497 36,000  Level FlightAware
03:05PM 35.8850 -100.7150 315° West 432 497 36,000  Level FlightAware
03:06PM 35.8350 -100.6530 135° Southeast 432 497 36,000  Level FlightAware
03:06PM 35.9900 -100.8430 315° West 429 494 36,000  Level FlightAware
03:07PM 36.0460 -100.8990 321° Northwest 425 489 36,000  Level FlightAware
03:08PM 36.0990 -100.9470 324° Northwest 425 489 36,000  Level FlightAware
03:08PM 36.1590 -100.9990 325° Northwest 424 488 36,000  Level FlightAware
03:09PM 36.2240 -101.0570 324° Northwest 424 488 36,000  Level FlightAware
03:10PM 36.2720 -101.1010 324° Northwest 424 488 36,000  Level FlightAware
03:10PM 36.3210 -101.1450 324° Northwest 424 488 36,000  Level FlightAware
03:11PM 36.3670 -101.1860 324° Northwest 424 488 36,000  Level FlightAware
03:11PM 36.4170 -101.2310 324° Northwest 424 488 36,000  Level FlightAware
03:12PM 36.4640 -101.2740 324° Northwest 424 488 36,000  Level FlightAware
03:13PM 36.5140 -101.3190 324° Northwest 424 488 36,000  Level FlightAware
03:13PM 36.5620 -101.3630 324° Northwest 424 488 36,000  Level FlightAware
03:14PM 36.6110 -101.4070 324° Northwest 424 488 36,000  Level FlightAware
03:14PM 36.6600 -101.4510 324° Northwest 424 488 36,000  Level FlightAware
03:15PM 36.7080 -101.4950 324° Northwest 424 488 36,000  Level FlightAware
03:16PM 36.7570 -101.5390 324° Northwest 424 488 36,000  Level FlightAware
03:16PM 36.8050 -101.5830 324° Northwest 424 488 36,000  Level FlightAware
03:17PM 36.8540 -101.6270 324° Northwest 424 488 36,000  Level FlightAware
03:17PM 36.9040 -101.6720 324° Northwest 424 488 36,000  Level FlightAware
03:18PM 36.9520 -101.7160 324° Northwest 424 488 36,000  Level FlightAware
03:19PM 37.2108 -101.9428 324° Northwest 424 488 36,000  Level Denver Center
03:20PM 37.3014 -102.0267 324° Northwest 423 487 36,000  Level Denver Center
03:21PM 37.3925 -102.1106 324° Northwest 424 488 36,000  Level Denver Center
03:22PM 37.5006 -102.2075 325° Northwest 425 489 36,000  Level Denver Center
03:23PM 37.5922 -102.2931 324° Northwest 428 493 36,000 -180 Level Denver Center
03:24PM 37.6986 -102.3928 323° Northwest 427 491 35,700 -600 Descending Denver Center
03:30PM 38.2860 -102.9420 323° Northwest 436 502 32,000 -600 Descending FlightAware
03:31PM 38.3390 -102.9930 323° Northwest 436 502 32,000  Level FlightAware
03:32PM 38.3900 -103.0420 323° Northwest 436 502 32,000  Level FlightAware
03:32PM 38.4390 -103.0900 323° Northwest 436 502 32,000 -1,500 Level FlightAware
03:33PM 38.5250 -103.1700 324° Northwest 441 507 30,100 -1,680 Descending FlightAware
03:34PM 38.5850 -103.2270 323° Northwest 444 511 30,000 -120 Descending FlightAware
03:34PM 38.6400 -103.2800 323° Northwest 443 510 30,000  Level FlightAware
03:35PM 38.6980 -103.3360 323° Northwest 443 510 30,000 -300 Level FlightAware
03:35PM 38.7520 -103.4000 317° Northwest 437 503 29,700 -780 Descending FlightAware
03:36PM 38.8010 -103.4700 312° West 431 496 29,100 -1,080 Descending FlightAware
03:36PM 38.8430 -103.5290 312° West 415 478 28,500 -1,080 Descending FlightAware
03:37PM 38.8900 -103.5950 312° West 407 468 27,900 -1,080 Descending FlightAware
03:38PM 38.9320 -103.6550 312° West 403 464 27,300 -1,020 Descending FlightAware
03:38PM 38.9790 -103.7220 312° West 402 463 26,700 -960 Descending FlightAware
03:39PM 39.0190 -103.7780 313° West 398 458 26,200 -1,080 Descending FlightAware
03:39PM 39.0630 -103.8420 312° West 395 455 25,500 -1,080 Descending FlightAware
03:40PM 39.1030 -103.8990 312° West 389 448 25,000 -1,500 Descending FlightAware
03:41PM 39.1470 -103.9620 312° West 378 435 23,800 -1,980 Descending FlightAware
03:41PM 39.1880 -104.0210 312° West 371 427 22,600 -1,680 Descending FlightAware
03:42PM 39.2290 -104.0790 312° West 352 405 21,800 -1,020 Descending FlightAware
03:42PM 39.2640 -104.1250 315° West 336 387 21,500 -1,200 Descending FlightAware
03:43PM 39.3120 -104.1660 327° Northwest 336 387 20,400 -1,740 Descending FlightAware
03:43PM 39.3610 -104.2060 328° Northwest 329 379 19,400 -1,620 Descending FlightAware
03:44PM 39.4010 -104.2390 327° Northwest 324 373 18,600 -1,500 Descending FlightAware
03:45PM 39.4460 -104.2760 328° Northwest 318 366 17,700 -1,440 Descending FlightAware
03:45PM 39.4920 -104.3130 328° Northwest 316 364 16,900 -1,140 Descending FlightAware
03:46PM 39.5310 -104.3450 328° Northwest 310 357 16,400 -1,020 Descending FlightAware
03:46PM 39.5740 -104.3800 328° Northwest 302 348 15,800 -900 Descending FlightAware
03:47PM 39.6140 -104.4170 325° Northwest 293 337 15,400 -840 Descending FlightAware
03:48PM 39.6510 -104.4530 323° Northwest 272 313 14,800 -1,140 Descending FlightAware
03:48PM 39.6880 -104.4870 325° Northwest 256 295 14,100 -1,380 Descending FlightAware
03:49PM 39.7180 -104.5150 324° Northwest 252 290 13,300 -1,500 Descending FlightAware
03:49PM 39.7510 -104.5460 324° Northwest 252 290 12,400 -1,620 Descending FlightAware
03:50PM 39.7640 -104.5640 313° West 251 289 11,900 -1,980 Descending FlightAware
03:50PM 39.7680 -104.5820 286° West 249 287 11,500 -1,140 Descending FlightAware
03:50PM 39.7690 -104.6360 271° West 251 289 11,000 -360 Descending FlightAware
03:51PM 39.7700 -104.6910 271° West 253 291 11,100 60 Climbing FlightAware
03:51PM 39.7700 -104.7400 270° West 250 288 11,100 -360 Level FlightAware
03:52PM 39.7710 -104.7910 271° West 234 269 10,700 -960 Descending FlightAware
03:53PM 39.7720 -104.8380 272° West 228 262 10,000 -1,200 Descending FlightAware
03:53PM 39.7710 -104.8840 268° West 218 251 9,400 -1,080 Descending FlightAware
03:54PM 39.7790 -104.9130 290° West 225 259 9,000 -960 Descending FlightAware
03:54PM 39.7860 -104.9200 322° Northwest 225 259 8,900 -600 Descending FlightAware
03:54PM 39.7980 -104.9250 342° North 223 257 8,800 -780 Descending FlightAware
03:55PM 39.8330 -104.9170 10° North 217 250 8,300 -840 Descending FlightAware
03:55PM 39.8380 -104.9100 47° Northeast 218 251 8,200 -1,020 Descending FlightAware
03:55PM 39.8390 -104.9050 75° East 219 252 8,100 -1,500 Descending FlightAware
03:55PM 39.8410 -104.8950 75° East 221 254 7,900 -1,500 Descending FlightAware
03:55PM 39.8420 -104.8850 83° East 226 260 7,700 -1,500 Descending FlightAware
03:55PM 39.8420 -104.8560 90° East 222 255 7,200 -1,200 Descending FlightAware
03:56PM 39.8410 -104.8280 93° East 208 239 6,900 -1,020 Descending FlightAware
03:56PM 39.8410 -104.8040 90° East 194 223 6,500 -1,140 Descending FlightAware
03:56PM 39.8410 -104.7780 90° East 176 203 6,100 -840 Descending FlightAware
03:57PM 39.8410 -104.7640 90° East 176 203 6,000 -840 Descending FlightAware
03:57PM 39.8410 -104.7400 90° East 178 205 5,600 -600 Descending FlightAware
03:58PM 39.8410 -104.7090 90° East 176 203 5,500 -240 Descending FlightAware